createdAt,value
2018-07-01T00:00:48.666Z,93.10
2018-07-01T00:03:17.151Z,92.60
2018-07-01T00:05:46.114Z,93.10
2018-07-01T00:08:14.672Z,92.50
2018-07-01T00:10:43.496Z,92.20
2018-07-01T00:13:11.998Z,93.10
2018-07-01T00:15:40.486Z,92.20
2018-07-01T00:18:08.957Z,92.50
2018-07-01T00:20:37.489Z,91.90
2018-07-01T00:23:06.857Z,92.60
2018-07-01T00:25:35.362Z,92.30
2018-07-01T00:28:03.917Z,91.70
2018-07-01T00:30:32.465Z,91.70
2018-07-01T00:33:01.038Z,91.90
2018-07-01T00:35:29.539Z,91.90
2018-07-01T00:37:58.030Z,92.50
2018-07-01T00:40:26.581Z,91.50
2018-07-01T00:45:23.272Z,92.40
2018-07-01T00:47:51.785Z,92.20
2018-07-01T00:50:20.250Z,92.50
2018-07-01T00:52:48.770Z,91.90
2018-07-01T00:55:17.249Z,91.20
2018-07-01T00:57:45.750Z,91.40
2018-07-01T01:02:42.416Z,92.10
2018-07-01T01:05:10.897Z,91.60
2018-07-01T01:07:39.359Z,92.10
2018-07-01T01:10:07.852Z,91.80
2018-07-01T01:12:36.386Z,91.60
2018-07-01T01:15:05.014Z,91.50
2018-07-01T01:17:33.510Z,92.00
2018-07-01T01:20:01.970Z,91.90
2018-07-01T01:22:30.428Z,91.70
2018-07-01T01:24:58.882Z,92.20
2018-07-01T01:27:27.368Z,92.20
2018-07-01T01:29:55.868Z,92.50
2018-07-01T01:32:24.328Z,92.20
2018-07-01T01:34:52.834Z,92.60
2018-07-01T01:37:21.451Z,92.60
2018-07-01T01:39:49.979Z,92.40
2018-07-01T01:42:25.046Z,92.80
2018-07-01T01:45:12.654Z,93.00
2018-07-01T01:47:46.002Z,92.80
2018-07-01T01:50:19.559Z,93.40
2018-07-01T01:53:51.195Z,92.90
2018-07-01T01:56:27.733Z,92.50
2018-07-01T01:59:01.127Z,93.50
2018-07-01T02:01:48.419Z,93.60
2018-07-01T02:04:31.664Z,93.60
2018-07-01T02:07:03.892Z,93.70
2018-07-01T02:09:34.487Z,94.10
2018-07-01T02:14:41.405Z,94.50
2018-07-01T02:17:14.428Z,93.90
2018-07-01T02:19:42.941Z,94.10
2018-07-01T02:22:13.953Z,94.20
2018-07-01T02:24:45.243Z,94.80
2018-07-01T02:27:13.767Z,94.30
2018-07-01T02:29:42.438Z,94.10
2018-07-01T02:32:10.946Z,93.90
2018-07-01T02:34:39.697Z,93.60
2018-07-01T02:37:08.231Z,94.00
2018-07-01T02:39:36.899Z,94.20
2018-07-01T02:42:05.457Z,94.60
2018-07-01T02:47:02.109Z,94.30
2018-07-01T02:51:58.769Z,94.50
2018-07-01T02:56:55.402Z,94.60
2018-07-01T02:59:23.924Z,94.80
2018-07-01T03:01:52.458Z,94.20
2018-07-01T03:04:20.995Z,94.70
2018-07-01T03:06:49.463Z,94.50
2018-07-01T03:09:17.959Z,94.60
2018-07-01T03:11:46.463Z,94.60
2018-07-01T03:14:14.959Z,95.20
2018-07-01T03:16:43.420Z,95.00
2018-07-01T03:19:11.861Z,95.00
2018-07-01T03:24:08.489Z,95.20
2018-07-01T03:26:36.942Z,95.50
2018-07-01T03:29:05.589Z,95.50
2018-07-01T03:34:02.443Z,95.80
2018-07-01T03:36:30.882Z,95.80
2018-07-01T03:38:59.607Z,95.50
2018-07-01T03:41:28.331Z,95.30
2018-07-01T03:43:56.775Z,95.50
2018-07-01T03:46:25.252Z,95.20
2018-07-01T03:48:53.699Z,95.30
2018-07-01T03:51:22.154Z,95.50
2018-07-01T03:53:50.873Z,95.50
2018-07-01T03:56:19.347Z,95.60
2018-07-01T03:58:47.830Z,95.60
2018-07-01T04:01:16.509Z,95.40
2018-07-01T04:03:44.993Z,95.80
2018-07-01T04:06:13.496Z,95.80
2018-07-01T04:08:41.983Z,95.80
2018-07-01T04:11:10.462Z,95.60
2018-07-01T04:13:39.009Z,95.60
2018-07-01T04:16:07.528Z,95.60
2018-07-01T04:18:35.974Z,96.10
2018-07-01T04:21:04.483Z,96.30
2018-07-01T04:23:33.047Z,96.10
2018-07-01T04:26:01.578Z,96.20
2018-07-01T04:28:30.065Z,96.20
2018-07-01T04:30:58.582Z,95.90
2018-07-01T04:33:27.025Z,95.90
2018-07-01T04:35:55.472Z,95.10
2018-07-01T04:38:24.330Z,93.80
2018-07-01T04:40:52.810Z,92.70
2018-07-01T04:43:21.282Z,91.70
2018-07-01T04:48:18.048Z,90.40
2018-07-01T04:50:46.493Z,89.90
2018-07-01T04:53:14.963Z,89.30
2018-07-01T04:55:43.429Z,89.30
2018-07-01T04:58:11.889Z,88.70
2018-07-01T05:00:40.472Z,90.30
2018-07-01T05:03:08.928Z,90.40
2018-07-01T05:05:37.413Z,87.90
2018-07-01T05:08:05.930Z,88.20
2018-07-01T05:10:34.377Z,87.10
2018-07-01T05:13:02.949Z,87.00
2018-07-01T05:15:31.431Z,88.40
2018-07-01T05:17:59.927Z,86.80
2018-07-01T05:20:30.765Z,86.90
2018-07-01T05:23:01.699Z,84.90
2018-07-01T05:25:34.249Z,87.00
2018-07-01T05:28:05.279Z,86.10
2018-07-01T05:30:37.640Z,85.10
2018-07-01T05:35:36.213Z,83.30
2018-07-01T05:38:05.140Z,82.60
2018-07-01T05:40:34.710Z,82.90
2018-07-01T05:43:03.196Z,82.40
2018-07-01T05:45:32.134Z,82.20
2018-07-01T05:48:00.836Z,81.90
2018-07-01T05:50:29.291Z,82.70
2018-07-01T05:52:57.781Z,82.20
2018-07-01T05:55:26.830Z,81.30
2018-07-01T05:57:55.284Z,82.00
2018-07-01T06:00:23.765Z,80.90
2018-07-01T06:02:52.253Z,81.80
2018-07-01T06:05:20.689Z,81.40
2018-07-01T06:07:49.118Z,82.10
2018-07-01T06:10:17.625Z,80.10
2018-07-01T06:15:14.454Z,79.80
2018-07-01T06:17:43.075Z,81.30
2018-07-01T06:20:12.757Z,81.20
2018-07-01T06:22:41.266Z,80.60
2018-07-01T06:25:09.782Z,80.30
2018-07-01T06:27:38.759Z,79.10
2018-07-01T06:30:07.937Z,80.20
2018-07-01T06:32:37.057Z,80.40
2018-07-01T06:35:06.768Z,81.00
2018-07-01T06:37:35.651Z,82.80
2018-07-01T06:40:04.675Z,85.10
2018-07-01T06:42:33.489Z,85.50
2018-07-01T06:45:02.135Z,87.30
2018-07-01T06:47:30.714Z,88.40
2018-07-01T06:49:59.427Z,88.00
2018-07-01T06:52:27.967Z,89.80
2018-07-01T06:54:56.555Z,90.00
2018-07-01T06:59:53.387Z,91.30
2018-07-01T07:02:22.053Z,91.50
2018-07-01T07:07:18.670Z,91.20
2018-07-01T07:09:47.450Z,91.10
2018-07-01T07:12:16.166Z,91.40
2018-07-01T07:14:44.758Z,91.90
2018-07-01T07:17:13.519Z,91.50
2018-07-01T07:19:42.456Z,91.70
2018-07-01T07:24:39.743Z,92.00
2018-07-01T07:27:08.393Z,92.30
2018-07-01T07:29:36.947Z,91.80
2018-07-01T07:32:05.720Z,92.80
2018-07-01T07:34:34.119Z,92.30
2018-07-01T07:41:58.913Z,93.30
2018-07-01T07:44:27.893Z,92.80
2018-07-01T07:46:56.642Z,93.00
2018-07-01T07:49:25.271Z,92.60
2018-07-01T07:51:54.146Z,92.80
2018-07-01T07:54:23.267Z,93.60
2018-07-01T07:56:52.167Z,93.30
2018-07-01T08:01:49.619Z,94.40
2018-07-01T08:04:18.553Z,93.40
2018-07-01T08:06:47.050Z,93.70
2018-07-01T08:09:15.971Z,94.60
2018-07-01T08:11:44.750Z,93.60
2018-07-01T08:14:13.819Z,94.30
2018-07-01T08:19:11.315Z,93.20
2018-07-01T08:21:40.150Z,93.80
2018-07-01T08:24:10.204Z,94.00
2018-07-01T08:26:39.709Z,93.30
2018-07-01T08:29:08.642Z,93.50
2018-07-01T08:31:37.796Z,93.20
2018-07-01T08:34:07.176Z,93.00
2018-07-01T08:36:38.176Z,94.00
2018-07-01T08:39:10.691Z,94.10
2018-07-01T08:42:27.409Z,93.20
2018-07-01T08:44:58.583Z,93.50
2018-07-01T08:47:28.469Z,93.10
2018-07-01T08:52:26.321Z,92.60
2018-07-01T08:54:56.883Z,92.60
2018-07-01T08:57:27.086Z,93.30
2018-07-01T08:59:57.144Z,92.30
2018-07-01T09:02:26.165Z,92.60
2018-07-01T09:04:55.389Z,92.10
2018-07-01T09:07:24.816Z,92.80
2018-07-01T09:09:57.057Z,92.60
2018-07-01T09:12:25.950Z,91.70
2018-07-01T09:14:54.747Z,92.20
2018-07-01T09:17:23.652Z,92.00
2018-07-01T09:19:52.581Z,92.40
2018-07-01T09:24:50.232Z,92.50
2018-07-01T09:27:19.124Z,92.70
2018-07-01T09:30:00.018Z,92.30
2018-07-01T09:35:00.645Z,91.80
2018-07-01T09:37:31.096Z,92.20
2018-07-01T09:42:31.889Z,91.90
2018-07-01T09:45:03.597Z,92.00
2018-07-01T09:47:39.207Z,91.20
2018-07-01T09:50:15.502Z,91.60
2018-07-01T09:52:44.643Z,91.40
2018-07-01T09:55:14.982Z,92.20
2018-07-01T10:02:53.935Z,92.50
2018-07-01T10:05:23.694Z,92.10
2018-07-01T10:07:52.147Z,92.80
2018-07-01T10:10:20.619Z,92.50
2018-07-01T10:12:49.041Z,92.70
2018-07-01T10:15:17.498Z,92.30
2018-07-01T10:17:45.978Z,92.60
2018-07-01T10:20:14.456Z,91.80
2018-07-01T10:22:42.890Z,91.00
2018-07-01T10:25:11.633Z,92.20
2018-07-01T10:27:40.119Z,92.00
2018-07-01T10:30:08.588Z,92.00
2018-07-01T10:32:37.978Z,91.90
2018-07-01T10:35:06.461Z,92.00
2018-07-01T10:37:34.978Z,92.10
2018-07-01T10:42:31.690Z,93.10
2018-07-01T10:47:28.678Z,91.90
2018-07-01T10:49:57.369Z,92.20
2018-07-01T10:52:25.969Z,92.10
2018-07-01T10:54:54.418Z,92.90
2018-07-01T10:57:22.882Z,91.90
2018-07-01T10:59:51.766Z,92.40
2018-07-01T11:02:20.328Z,90.60
2018-07-01T11:04:49.087Z,92.50
2018-07-01T11:07:18.122Z,92.30
2018-07-01T11:09:46.829Z,92.60
2018-07-01T11:12:15.336Z,93.00
2018-07-01T11:14:43.837Z,91.80
2018-07-01T11:17:12.400Z,92.10
2018-07-01T11:19:40.861Z,92.80
2018-07-01T11:27:07.275Z,91.60
2018-07-01T11:29:35.654Z,92.60
2018-07-01T11:32:04.283Z,92.50
2018-07-01T11:34:32.964Z,91.10
2018-07-01T11:37:01.828Z,92.20
2018-07-01T11:39:30.480Z,92.00
2018-07-01T11:41:59.134Z,92.90
2018-07-01T11:44:27.785Z,91.90
2018-07-01T11:46:56.424Z,91.20
2018-07-01T11:51:53.514Z,91.80
2018-07-01T11:54:22.533Z,92.00
2018-07-01T11:56:51.235Z,92.50
2018-07-01T11:59:19.838Z,91.50
2018-07-01T12:01:48.473Z,91.90
2018-07-01T12:04:18.386Z,92.90
2018-07-01T12:06:47.228Z,92.10
2018-07-01T12:09:15.730Z,92.30
2018-07-01T12:14:12.376Z,91.70
2018-07-01T12:16:41.191Z,91.60
2018-07-01T12:19:10.026Z,91.80
2018-07-01T12:21:38.692Z,91.80
2018-07-01T12:24:07.174Z,91.60
2018-07-01T12:26:35.682Z,91.40
2018-07-01T12:29:05.325Z,91.20
2018-07-01T12:34:07.515Z,91.40
2018-07-01T12:36:36.613Z,91.10
2018-07-01T12:39:12.466Z,91.20
2018-07-01T12:41:44.759Z,90.50
2018-07-01T12:44:14.228Z,90.30
2018-07-01T12:46:42.895Z,90.70
2018-07-01T12:49:15.998Z,90.50
2018-07-01T12:51:44.472Z,91.20
2018-07-01T12:54:13.011Z,90.80
2018-07-01T12:56:43.036Z,90.80
2018-07-01T12:59:24.220Z,91.40
2018-07-01T13:01:53.067Z,91.10
2018-07-01T13:04:22.463Z,91.20
2018-07-01T13:06:53.989Z,91.50
2018-07-01T13:09:45.068Z,91.10
2018-07-01T13:12:14.791Z,90.60
2018-07-01T13:14:43.883Z,90.10
2018-07-01T13:17:12.520Z,90.30
2018-07-01T13:19:42.026Z,90.50
2018-07-01T13:22:11.442Z,90.40
2018-07-01T13:24:42.088Z,90.00
2018-07-01T13:27:11.579Z,90.10
2018-07-01T13:32:08.731Z,90.00
2018-07-01T13:34:37.250Z,90.00
2018-07-01T13:39:34.025Z,90.10
2018-07-01T13:42:02.544Z,90.40
2018-07-01T13:44:31.373Z,90.20
2018-07-01T13:46:59.950Z,88.40
2018-07-01T13:51:57.431Z,88.30
2018-07-01T13:54:25.983Z,89.00
2018-07-01T13:56:54.505Z,89.30
2018-07-01T13:59:22.976Z,89.20
2018-07-01T14:01:51.480Z,87.80
2018-07-01T14:04:19.986Z,85.90
2018-07-01T14:06:48.483Z,88.30
2018-07-01T14:09:16.962Z,88.00
2018-07-01T14:11:45.471Z,88.80
2018-07-01T14:14:13.999Z,86.80
2018-07-01T14:16:42.484Z,87.80
2018-07-01T14:19:12.993Z,86.90
2018-07-01T14:21:41.643Z,89.20
2018-07-01T14:24:10.456Z,89.00
2018-07-01T14:26:39.413Z,87.90
2018-07-01T14:29:07.999Z,86.80
2018-07-01T14:31:36.661Z,86.80
2018-07-01T14:34:05.168Z,87.10
2018-07-01T14:36:33.761Z,86.50
2018-07-01T14:39:02.713Z,86.80
2018-07-01T14:41:31.466Z,86.50
2018-07-01T14:44:00.082Z,86.40
2018-07-01T14:46:28.575Z,86.00
2018-07-01T14:48:58.360Z,85.40
2018-07-01T14:53:55.220Z,87.40
2018-07-01T14:58:51.839Z,85.30
2018-07-01T15:01:20.374Z,87.10
2018-07-01T15:03:48.813Z,85.40
2018-07-01T15:06:17.314Z,86.90
2018-07-01T15:08:45.805Z,85.00
2018-07-01T15:11:14.377Z,85.20
2018-07-01T15:13:43.026Z,84.50
2018-07-01T15:16:11.522Z,85.80
2018-07-01T15:18:39.995Z,87.20
2018-07-01T15:21:08.581Z,86.20
2018-07-01T15:23:37.563Z,86.20
2018-07-01T15:26:06.046Z,86.80
2018-07-01T15:28:34.515Z,87.70
2018-07-01T15:31:04.067Z,85.20
2018-07-01T15:33:32.507Z,85.50
2018-07-01T15:36:01.035Z,83.50
2018-07-01T15:38:29.499Z,84.30
2018-07-01T15:40:57.939Z,86.00
2018-07-01T15:43:26.404Z,85.40
2018-07-01T15:45:54.872Z,86.30
2018-07-01T15:48:23.373Z,85.70
2018-07-01T15:50:51.826Z,87.80
2018-07-01T15:53:20.271Z,85.60
2018-07-01T15:55:48.731Z,84.80
2018-07-01T15:58:17.246Z,85.30
2018-07-01T16:00:45.906Z,85.10
2018-07-01T16:03:14.417Z,85.20
2018-07-01T16:05:43.002Z,84.60
2018-07-01T16:08:11.454Z,84.60
2018-07-01T16:10:40.027Z,83.80
2018-07-01T16:13:08.666Z,84.20
2018-07-01T16:15:37.662Z,84.70
2018-07-01T16:20:34.877Z,84.60
2018-07-01T16:23:04.084Z,85.40
2018-07-01T16:25:38.667Z,84.00
2018-07-01T16:28:12.873Z,85.60
2018-07-01T16:30:41.693Z,84.80
2018-07-01T16:35:38.418Z,84.20
2018-07-01T16:38:07.359Z,84.00
2018-07-01T16:40:36.235Z,83.10
2018-07-01T16:43:04.946Z,84.30
2018-07-01T16:45:33.603Z,84.10
2018-07-01T16:48:02.351Z,83.90
2018-07-01T16:50:31.087Z,83.20
2018-07-01T16:55:28.331Z,82.90
2018-07-01T16:57:57.107Z,83.30
2018-07-01T17:00:25.716Z,81.80
2018-07-01T17:05:23.000Z,82.90
2018-07-01T17:07:51.825Z,81.50
2018-07-01T17:10:20.869Z,82.90
2018-07-01T17:12:49.683Z,82.20
2018-07-01T17:15:18.537Z,82.60
2018-07-01T17:17:47.239Z,82.80
2018-07-01T17:20:16.040Z,83.20
2018-07-01T17:22:44.921Z,82.80
2018-07-01T17:25:13.814Z,82.50
2018-07-01T17:27:42.595Z,82.30
2018-07-01T17:30:11.536Z,82.50
2018-07-01T17:32:45.619Z,82.20
2018-07-01T17:37:42.722Z,80.70
2018-07-01T17:40:11.888Z,81.60
2018-07-01T17:42:40.693Z,81.60
2018-07-01T17:45:09.534Z,81.40
2018-07-01T17:47:38.310Z,82.20
2018-07-01T17:50:07.104Z,83.10
2018-07-01T17:52:35.843Z,81.90
2018-07-01T17:55:05.968Z,81.80
2018-07-01T17:57:34.700Z,82.30
2018-07-01T18:00:03.539Z,82.80
2018-07-01T18:05:00.507Z,83.60
2018-07-01T18:07:29.261Z,84.10
2018-07-01T18:09:58.391Z,85.30
2018-07-01T18:14:55.478Z,85.60
2018-07-01T18:17:24.245Z,86.70
2018-07-01T18:22:52.492Z,86.90
2018-07-01T18:27:19.331Z,86.60
2018-07-01T18:29:48.060Z,87.80
2018-07-01T18:32:17.004Z,86.60
2018-07-01T18:34:46.034Z,86.60
2018-07-01T18:37:14.831Z,87.20
2018-07-01T18:39:45.930Z,87.10
2018-07-01T18:42:16.238Z,87.30
2018-07-01T18:44:45.339Z,88.30
2018-07-01T18:47:17.061Z,88.00
2018-07-01T18:49:46.012Z,89.00
2018-07-01T18:52:14.912Z,89.40
2018-07-01T18:54:44.324Z,89.10
2018-07-01T18:57:12.962Z,88.50
2018-07-01T19:02:13.305Z,89.20
2018-07-01T19:04:42.234Z,89.30
2018-07-01T19:07:10.937Z,88.50
2018-07-01T19:09:39.757Z,87.90
2018-07-01T19:12:09.187Z,88.10
2018-07-01T19:14:38.492Z,88.60
2018-07-01T19:17:07.274Z,88.00
2018-07-01T19:19:35.989Z,88.70
2018-07-01T19:22:04.619Z,89.10
2018-07-01T19:24:33.259Z,88.50
2018-07-01T19:27:01.953Z,88.20
2018-07-01T19:29:30.486Z,88.60
2018-07-01T19:31:58.991Z,88.80
2018-07-01T19:36:57.151Z,88.50
2018-07-01T19:39:25.738Z,89.10
2018-07-01T19:41:54.511Z,89.00
2018-07-01T19:44:24.068Z,88.80
2018-07-01T19:46:53.181Z,89.60
2018-07-01T19:49:21.729Z,89.30
2018-07-01T19:51:50.202Z,89.70
2018-07-01T19:54:18.744Z,89.30
2018-07-01T19:56:47.267Z,88.80
2018-07-01T19:59:15.999Z,89.30
2018-07-01T20:01:44.542Z,88.00
2018-07-01T20:04:13.245Z,88.40
2018-07-01T20:09:10.465Z,88.60
2018-07-01T20:11:38.999Z,88.70
2018-07-01T20:19:04.954Z,88.50
2018-07-01T20:21:33.546Z,88.60
2018-07-01T20:26:30.599Z,89.00
2018-07-01T20:28:59.167Z,90.20
2018-07-01T20:31:27.644Z,89.70
2018-07-01T20:33:56.121Z,90.10
2018-07-01T20:36:24.647Z,90.10
2018-07-01T20:43:50.049Z,90.50
2018-07-01T20:48:47.178Z,90.20
2018-07-01T20:51:15.852Z,90.50
2018-07-01T20:53:45.386Z,90.70
2018-07-01T20:58:42.470Z,90.60
2018-07-01T21:01:11.177Z,91.00
2018-07-01T21:03:39.793Z,90.80
2018-07-01T21:06:08.426Z,91.20
2018-07-01T21:08:37.098Z,91.20
2018-07-01T21:11:05.745Z,91.50
2018-07-01T21:13:34.396Z,91.40
2018-07-01T21:16:03.446Z,91.80
2018-07-01T21:18:39.166Z,91.70
2018-07-01T21:21:08.117Z,91.70
2018-07-01T21:23:36.626Z,92.10
2018-07-01T21:26:05.374Z,92.00
2018-07-01T21:28:33.870Z,91.90
2018-07-01T21:31:02.309Z,92.40
2018-07-01T21:35:59.013Z,92.60
2018-07-01T21:38:27.546Z,92.60
2018-07-01T21:40:56.136Z,92.80
2018-07-01T21:43:24.733Z,92.80
2018-07-01T21:45:53.222Z,92.90
2018-07-01T21:48:28.031Z,92.80
2018-07-01T21:50:56.601Z,93.00
2018-07-01T21:55:53.281Z,92.40
2018-07-01T21:58:21.763Z,92.80
2018-07-01T22:00:50.263Z,92.70
2018-07-01T22:03:19.116Z,93.10
2018-07-01T22:05:47.863Z,93.40
2018-07-01T22:08:16.506Z,93.10
2018-07-01T22:10:57.295Z,93.40
2018-07-01T22:14:31.357Z,93.30
2018-07-01T22:17:00.466Z,93.00
2018-07-01T22:22:02.482Z,92.70
2018-07-01T22:24:32.318Z,93.10
2018-07-01T22:27:01.014Z,93.00
2018-07-01T22:29:36.506Z,93.20
2018-07-01T22:32:05.001Z,93.20
2018-07-01T22:34:33.501Z,93.20
2018-07-01T22:37:02.230Z,93.80
2018-07-01T22:39:31.499Z,93.50
2018-07-01T22:42:01.347Z,93.80
2018-07-01T22:44:30.201Z,93.70
2018-07-01T22:46:58.743Z,93.60
2018-07-01T22:49:28.323Z,93.60
2018-07-01T22:51:56.842Z,93.70
2018-07-01T22:54:25.374Z,93.80
2018-07-01T22:56:53.891Z,94.00
2018-07-01T22:59:22.366Z,94.10
2018-07-01T23:03:05.993Z,93.90
2018-07-01T23:05:34.482Z,94.20
2018-07-01T23:08:03.027Z,94.50
2018-07-01T23:10:32.102Z,94.60
2018-07-01T23:13:01.091Z,94.40
2018-07-01T23:15:29.782Z,94.60
2018-07-01T23:20:26.818Z,94.60
2018-07-01T23:22:55.590Z,95.00
2018-07-01T23:25:24.217Z,94.80
2018-07-01T23:27:52.879Z,94.90
2018-07-01T23:30:21.441Z,94.80
2018-07-01T23:32:49.955Z,94.80
2018-07-01T23:35:18.454Z,94.60
2018-07-01T23:37:47.210Z,95.20
2018-07-01T23:40:15.706Z,95.00
2018-07-01T23:42:44.385Z,95.40
2018-07-01T23:45:14.146Z,95.70
2018-07-01T23:47:42.912Z,94.80
2018-07-01T23:50:11.677Z,94.90
2018-07-01T23:52:40.169Z,95.10
2018-07-01T23:55:09.221Z,94.70
2018-07-01T23:57:37.729Z,94.40
